MMVR/VER METAR and TAF weather

Enter ICAO airport designator
Station Type Date Time Source
MMVR METAR 2019/07/17 11:51 UTC NOAA

MMVR 171151Z 00000KT 6SM OVC070 25/25 A2998 RMK SLP121 5//// 909 8/07/ HZY TCU DSNT 1ER QUAD


Station Type Date Time Source
MMVR Decoded METAR 2019/07/17 11:51 UTC NOAA

Veracruz / Las Bajadas / General Heriberto Jara, Mexico (MMVR) 19-09N 096-11W
Jul 17, 2019 - 07:51 AM EDT / 2019.07.17 1151 UTC
Wind: Calm:0
Visibility: 6 mile(s):0
Sky conditions: overcast
Weather: Towering cumulus clouds observed
Temperature: 77 F (25 C)
Dew Point: 77 F (25 C)
Relative Humidity: 100%
Pressure (altimeter): 29.98 in. Hg (1015 hPa)
ob: MMVR 171151Z 00000KT 6SM OVC070 25/25 A2998 RMK SLP121 5//// 909 8/07/ HZY TCU DSNT 1ER QUAD
cycle: 12

Station Type Date Time Source
MMVR TAF 2019/07/17 06:20 UTC NOAA

TAF MMVR 170412Z 1706/1806 00000KT 6SM HZ SCT012 SCT080 BKN250 TX33/1719Z TN16/1712Z
TEMPO 1710/1714 4SM -RA BR BKN010 OVC070
FM171600 12006KT 5SM HZ SCT015 SCT080 BKN240
BECMG 1803/1805 04004KT

Example: see airport list